sensor_id;sensor_type;location;lat;lon;timestamp;P1;durP1;ratioP1;P2;durP2;ratioP2
22829;SDS011;11581;51.250;6.778;2022-12-24T00:05:14;22.15;;;4.57;;
22829;SDS011;11581;51.250;6.778;2022-12-24T00:07:55;13.88;;;3.72;;
22829;SDS011;11581;51.250;6.778;2022-12-24T00:10:31;20.35;;;3.65;;
22829;SDS011;11581;51.250;6.778;2022-12-24T00:13:01;34.53;;;4.53;;
22829;SDS011;11581;51.250;6.778;2022-12-24T00:15:29;20.00;;;4.30;;
22829;SDS011;11581;51.250;6.778;2022-12-24T00:18:16;15.05;;;3.63;;
22829;SDS011;11581;51.250;6.778;2022-12-24T00:20:58;16.25;;;3.10;;
22829;SDS011;11581;51.250;6.778;2022-12-24T00:23:41;17.23;;;3.50;;
22829;SDS011;11581;51.250;6.778;2022-12-24T00:26:11;23.95;;;4.20;;
22829;SDS011;11581;51.250;6.778;2022-12-24T00:28:54;17.58;;;3.63;;
22829;SDS011;11581;51.250;6.778;2022-12-24T00:31:21;15.40;;;3.67;;
22829;SDS011;11581;51.250;6.778;2022-12-24T00:33:58;19.55;;;3.35;;
22829;SDS011;11581;51.250;6.778;2022-12-24T00:36:27;16.83;;;3.75;;
22829;SDS011;11581;51.250;6.778;2022-12-24T00:38:55;14.93;;;3.95;;
22829;SDS011;11581;51.250;6.778;2022-12-24T00:41:25;17.80;;;3.67;;
22829;SDS011;11581;51.250;6.778;2022-12-24T00:43:55;20.42;;;4.35;;
22829;SDS011;11581;51.250;6.778;2022-12-24T00:46:24;19.10;;;4.00;;
22829;SDS011;11581;51.250;6.778;2022-12-24T00:49:02;13.13;;;3.35;;
22829;SDS011;11581;51.250;6.778;2022-12-24T00:51:34;19.85;;;4.22;;
22829;SDS011;11581;51.250;6.778;2022-12-24T00:54:08;28.38;;;4.30;;
22829;SDS011;11581;51.250;6.778;2022-12-24T00:56:36;23.98;;;3.65;;
22829;SDS011;11581;51.250;6.778;2022-12-24T00:59:05;19.10;;;4.13;;
22829;SDS011;11581;51.250;6.778;2022-12-24T01:01:33;18.63;;;3.25;;
22829;SDS011;11581;51.250;6.778;2022-12-24T01:04:03;19.98;;;3.83;;
22829;SDS011;11581;51.250;6.778;2022-12-24T01:06:47;15.50;;;3.42;;
22829;SDS011;11581;51.250;6.778;2022-12-24T01:09:22;20.90;;;4.15;;
22829;SDS011;11581;51.250;6.778;2022-12-24T01:11:50;20.88;;;4.25;;
22829;SDS011;11581;51.250;6.778;2022-12-24T01:14:19;23.30;;;3.88;;
22829;SDS011;11581;51.250;6.778;2022-12-24T01:16:51;19.20;;;4.43;;
22829;SDS011;11581;51.250;6.778;2022-12-24T01:19:19;19.58;;;3.97;;
22829;SDS011;11581;51.250;6.778;2022-12-24T01:22:01;15.02;;;3.55;;
22829;SDS011;11581;51.250;6.778;2022-12-24T01:24:43;17.30;;;3.53;;
22829;SDS011;11581;51.250;6.778;2022-12-24T01:27:10;16.13;;;3.40;;
22829;SDS011;11581;51.250;6.778;2022-12-24T01:29:38;16.98;;;3.58;;
22829;SDS011;11581;51.250;6.778;2022-12-24T01:32:08;17.13;;;4.05;;
22829;SDS011;11581;51.250;6.778;2022-12-24T01:34:37;22.48;;;3.95;;
22829;SDS011;11581;51.250;6.778;2022-12-24T01:37:04;11.52;;;3.60;;
22829;SDS011;11581;51.250;6.778;2022-12-24T01:39:32;20.40;;;4.13;;
22829;SDS011;11581;51.250;6.778;2022-12-24T01:51:13;19.52;;;3.80;;
22829;SDS011;11581;51.250;6.778;2022-12-24T01:53:47;24.73;;;3.72;;
22829;SDS011;11581;51.250;6.778;2022-12-24T01:56:20;15.93;;;3.80;;
22829;SDS011;11581;51.250;6.778;2022-12-24T01:58:49;17.17;;;4.20;;
22829;SDS011;11581;51.250;6.778;2022-12-24T02:01:20;21.17;;;4.15;;
22829;SDS011;11581;51.250;6.778;2022-12-24T02:03:47;19.23;;;4.05;;
22829;SDS011;11581;51.250;6.778;2022-12-24T02:06:18;19.33;;;3.47;;
22829;SDS011;11581;51.250;6.778;2022-12-24T02:08:49;17.25;;;3.47;;
22829;SDS011;11581;51.250;6.778;2022-12-24T02:11:18;22.08;;;4.28;;
22829;SDS011;11581;51.250;6.778;2022-12-24T02:13:52;17.48;;;3.08;;
22829;SDS011;11581;51.250;6.778;2022-12-24T02:16:28;17.00;;;3.53;;
22829;SDS011;11581;51.250;6.778;2022-12-24T02:19:09;20.95;;;4.15;;
22829;SDS011;11581;51.250;6.778;2022-12-24T02:22:04;21.42;;;4.10;;
22829;SDS011;11581;51.250;6.778;2022-12-24T02:24:50;18.67;;;3.45;;
22829;SDS011;11581;51.250;6.778;2022-12-24T02:27:54;19.95;;;3.75;;
22829;SDS011;11581;51.250;6.778;2022-12-24T02:30:32;16.60;;;3.65;;
22829;SDS011;11581;51.250;6.778;2022-12-24T02:33:08;21.38;;;3.65;;
22829;SDS011;11581;51.250;6.778;2022-12-24T02:35:45;20.48;;;3.72;;
22829;SDS011;11581;51.250;6.778;2022-12-24T02:38:21;20.75;;;4.80;;
22829;SDS011;11581;51.250;6.778;2022-12-24T02:40:55;16.48;;;3.60;;
22829;SDS011;11581;51.250;6.778;2022-12-24T02:43:28;17.20;;;3.53;;
22829;SDS011;11581;51.250;6.778;2022-12-24T02:46:02;19.38;;;4.18;;
22829;SDS011;11581;51.250;6.778;2022-12-24T02:48:34;15.65;;;3.75;;
22829;SDS011;11581;51.250;6.778;2022-12-24T02:51:04;17.33;;;3.55;;
22829;SDS011;11581;51.250;6.778;2022-12-24T02:53:35;14.80;;;3.28;;
22829;SDS011;11581;51.250;6.778;2022-12-24T02:56:11;15.23;;;3.78;;
22829;SDS011;11581;51.250;6.778;2022-12-24T03:02:04;16.73;;;3.60;;
22829;SDS011;11581;51.250;6.778;2022-12-24T03:04:44;14.10;;;3.20;;
22829;SDS011;11581;51.250;6.778;2022-12-24T03:07:16;19.48;;;3.85;;
22829;SDS011;11581;51.250;6.778;2022-12-24T03:09:50;19.02;;;3.50;;
22829;SDS011;11581;51.250;6.778;2022-12-24T03:12:26;18.85;;;4.18;;
22829;SDS011;11581;51.250;6.778;2022-12-24T03:14:58;21.33;;;4.85;;
22829;SDS011;11581;51.250;6.778;2022-12-24T03:17:28;25.13;;;4.45;;
22829;SDS011;11581;51.250;6.778;2022-12-24T03:19:56;16.20;;;3.70;;
22829;SDS011;11581;51.250;6.778;2022-12-24T03:22:23;16.23;;;3.85;;
22829;SDS011;11581;51.250;6.778;2022-12-24T03:24:52;14.05;;;3.08;;
22829;SDS011;11581;51.250;6.778;2022-12-24T03:27:23;15.88;;;3.83;;
22829;SDS011;11581;51.250;6.778;2022-12-24T03:29:51;26.63;;;4.38;;
22829;SDS011;11581;51.250;6.778;2022-12-24T03:32:34;26.88;;;4.93;;
22829;SDS011;11581;51.250;6.778;2022-12-24T03:35:02;12.20;;;3.17;;
22829;SDS011;11581;51.250;6.778;2022-12-24T03:37:29;17.98;;;3.88;;
22829;SDS011;11581;51.250;6.778;2022-12-24T03:39:58;18.20;;;3.35;;
22829;SDS011;11581;51.250;6.778;2022-12-24T03:42:25;11.07;;;3.30;;
22829;SDS011;11581;51.250;6.778;2022-12-24T03:44:53;18.52;;;3.25;;
22829;SDS011;11581;51.250;6.778;2022-12-24T03:47:28;18.23;;;3.97;;
22829;SDS011;11581;51.250;6.778;2022-12-24T03:49:57;16.17;;;3.88;;
22829;SDS011;11581;51.250;6.778;2022-12-24T03:52:25;14.68;;;3.47;;
22829;SDS011;11581;51.250;6.778;2022-12-24T03:54:52;17.05;;;3.67;;
22829;SDS011;11581;51.250;6.778;2022-12-24T03:57:21;15.25;;;3.33;;
22829;SDS011;11581;51.250;6.778;2022-12-24T03:59:49;12.48;;;3.33;;
22829;SDS011;11581;51.250;6.778;2022-12-24T04:02:16;14.70;;;3.17;;
22829;SDS011;11581;51.250;6.778;2022-12-24T04:04:43;16.02;;;2.78;;
22829;SDS011;11581;51.250;6.778;2022-12-24T04:07:14;12.98;;;2.75;;
22829;SDS011;11581;51.250;6.778;2022-12-24T04:09:41;11.35;;;2.70;;
22829;SDS011;11581;51.250;6.778;2022-12-24T04:12:09;10.73;;;2.15;;
22829;SDS011;11581;51.250;6.778;2022-12-24T04:14:36;11.75;;;3.33;;
22829;SDS011;11581;51.250;6.778;2022-12-24T04:17:04;12.63;;;2.97;;
22829;SDS011;11581;51.250;6.778;2022-12-24T04:19:31;9.75;;;2.33;;
22829;SDS011;11581;51.250;6.778;2022-12-24T04:21:58;9.68;;;2.30;;
22829;SDS011;11581;51.250;6.778;2022-12-24T04:27:12;11.88;;;3.28;;
22829;SDS011;11581;51.250;6.778;2022-12-24T04:29:43;11.32;;;2.53;;
22829;SDS011;11581;51.250;6.778;2022-12-24T04:32:11;10.13;;;2.47;;
22829;SDS011;11581;51.250;6.778;2022-12-24T04:34:38;13.48;;;2.83;;
22829;SDS011;11581;51.250;6.778;2022-12-24T04:37:06;10.38;;;2.33;;
22829;SDS011;11581;51.250;6.778;2022-12-24T04:39:33;16.10;;;3.15;;
22829;SDS011;11581;51.250;6.778;2022-12-24T04:42:05;11.63;;;2.70;;
22829;SDS011;11581;51.250;6.778;2022-12-24T04:44:35;9.68;;;2.10;;
22829;SDS011;11581;51.250;6.778;2022-12-24T04:47:03;11.63;;;2.78;;
22829;SDS011;11581;51.250;6.778;2022-12-24T04:49:30;11.38;;;2.35;;
22829;SDS011;11581;51.250;6.778;2022-12-24T04:52:05;11.57;;;2.28;;
22829;SDS011;11581;51.250;6.778;2022-12-24T04:54:32;16.25;;;3.38;;
22829;SDS011;11581;51.250;6.778;2022-12-24T04:57:01;10.30;;;2.58;;
22829;SDS011;11581;51.250;6.778;2022-12-24T04:59:31;16.95;;;3.30;;
22829;SDS011;11581;51.250;6.778;2022-12-24T05:01:58;11.70;;;2.50;;
22829;SDS011;11581;51.250;6.778;2022-12-24T05:04:25;11.23;;;2.63;;
22829;SDS011;11581;51.250;6.778;2022-12-24T05:06:52;13.13;;;2.95;;
22829;SDS011;11581;51.250;6.778;2022-12-24T05:09:19;11.90;;;3.38;;
22829;SDS011;11581;51.250;6.778;2022-12-24T05:11:46;10.52;;;2.60;;
22829;SDS011;11581;51.250;6.778;2022-12-24T05:14:13;8.52;;;2.15;;
22829;SDS011;11581;51.250;6.778;2022-12-24T05:16:42;12.98;;;2.55;;
22829;SDS011;11581;51.250;6.778;2022-12-24T05:19:09;11.43;;;2.25;;
22829;SDS011;11581;51.250;6.778;2022-12-24T05:21:36;12.52;;;2.67;;
22829;SDS011;11581;51.250;6.778;2022-12-24T05:24:04;12.27;;;2.95;;
22829;SDS011;11581;51.250;6.778;2022-12-24T05:26:49;9.57;;;2.90;;
22829;SDS011;11581;51.250;6.778;2022-12-24T05:29:19;12.23;;;2.88;;
22829;SDS011;11581;51.250;6.778;2022-12-24T05:31:49;12.65;;;2.63;;
22829;SDS011;11581;51.250;6.778;2022-12-24T05:34:16;13.23;;;2.20;;
22829;SDS011;11581;51.250;6.778;2022-12-24T05:36:43;8.80;;;2.33;;
22829;SDS011;11581;51.250;6.778;2022-12-24T05:39:12;11.38;;;2.70;;
22829;SDS011;11581;51.250;6.778;2022-12-24T05:41:42;11.95;;;2.85;;
22829;SDS011;11581;51.250;6.778;2022-12-24T05:44:10;11.75;;;3.10;;
22829;SDS011;11581;51.250;6.778;2022-12-24T05:46:38;13.77;;;2.97;;
22829;SDS011;11581;51.250;6.778;2022-12-24T05:49:10;9.40;;;2.53;;
22829;SDS011;11581;51.250;6.778;2022-12-24T05:51:37;9.80;;;2.33;;
22829;SDS011;11581;51.250;6.778;2022-12-24T05:54:05;9.93;;;2.65;;
22829;SDS011;11581;51.250;6.778;2022-12-24T05:56:36;13.63;;;3.30;;
22829;SDS011;11581;51.250;6.778;2022-12-24T05:59:08;12.95;;;3.17;;
22829;SDS011;11581;51.250;6.778;2022-12-24T06:01:34;13.63;;;3.30;;
22829;SDS011;11581;51.250;6.778;2022-12-24T06:04:02;17.95;;;2.65;;
22829;SDS011;11581;51.250;6.778;2022-12-24T06:06:31;9.18;;;2.90;;
22829;SDS011;11581;51.250;6.778;2022-12-24T06:08:59;18.38;;;3.72;;
22829;SDS011;11581;51.250;6.778;2022-12-24T06:11:27;11.20;;;2.53;;
22829;SDS011;11581;51.250;6.778;2022-12-24T06:13:56;13.38;;;3.38;;
22829;SDS011;11581;51.250;6.778;2022-12-24T06:16:23;12.85;;;2.78;;
22829;SDS011;11581;51.250;6.778;2022-12-24T06:18:51;12.45;;;3.10;;
22829;SDS011;11581;51.250;6.778;2022-12-24T06:21:19;13.80;;;2.65;;
22829;SDS011;11581;51.250;6.778;2022-12-24T06:23:49;9.23;;;2.83;;
22829;SDS011;11581;51.250;6.778;2022-12-24T06:26:18;12.50;;;3.10;;
22829;SDS011;11581;51.250;6.778;2022-12-24T06:28:49;12.77;;;2.85;;
22829;SDS011;11581;51.250;6.778;2022-12-24T06:31:17;12.02;;;3.25;;
22829;SDS011;11581;51.250;6.778;2022-12-24T06:33:46;21.42;;;4.35;;
22829;SDS011;11581;51.250;6.778;2022-12-24T06:36:14;16.05;;;3.42;;
22829;SDS011;11581;51.250;6.778;2022-12-24T06:38:42;14.25;;;3.10;;
22829;SDS011;11581;51.250;6.778;2022-12-24T06:41:13;16.50;;;3.60;;
22829;SDS011;11581;51.250;6.778;2022-12-24T06:43:42;15.30;;;3.13;;
22829;SDS011;11581;51.250;6.778;2022-12-24T06:46:10;10.02;;;2.80;;
22829;SDS011;11581;51.250;6.778;2022-12-24T06:48:41;20.80;;;4.30;;
22829;SDS011;11581;51.250;6.778;2022-12-24T06:51:11;16.48;;;2.95;;
22829;SDS011;11581;51.250;6.778;2022-12-24T06:53:44;12.77;;;2.85;;
22829;SDS011;11581;51.250;6.778;2022-12-24T06:56:15;15.38;;;3.33;;
22829;SDS011;11581;51.250;6.778;2022-12-24T06:58:42;18.20;;;3.05;;
22829;SDS011;11581;51.250;6.778;2022-12-24T07:01:10;16.52;;;4.03;;
22829;SDS011;11581;51.250;6.778;2022-12-24T07:03:40;15.73;;;4.03;;
22829;SDS011;11581;51.250;6.778;2022-12-24T07:06:10;17.23;;;3.50;;
22829;SDS011;11581;51.250;6.778;2022-12-24T07:08:46;18.35;;;3.42;;
22829;SDS011;11581;51.250;6.778;2022-12-24T07:11:19;17.95;;;4.05;;
22829;SDS011;11581;51.250;6.778;2022-12-24T07:13:49;20.80;;;3.53;;
22829;SDS011;11581;51.250;6.778;2022-12-24T07:16:21;18.92;;;3.63;;
22829;SDS011;11581;51.250;6.778;2022-12-24T07:18:51;16.42;;;3.70;;
22829;SDS011;11581;51.250;6.778;2022-12-24T07:21:18;20.23;;;4.20;;
22829;SDS011;11581;51.250;6.778;2022-12-24T07:23:45;14.30;;;3.55;;
22829;SDS011;11581;51.250;6.778;2022-12-24T07:26:13;17.48;;;3.90;;
22829;SDS011;11581;51.250;6.778;2022-12-24T07:28:47;15.68;;;3.47;;
22829;SDS011;11581;51.250;6.778;2022-12-24T07:31:14;18.08;;;4.30;;
22829;SDS011;11581;51.250;6.778;2022-12-24T07:33:41;18.58;;;3.67;;
22829;SDS011;11581;51.250;6.778;2022-12-24T07:36:09;17.23;;;3.78;;
22829;SDS011;11581;51.250;6.778;2022-12-24T07:38:41;16.02;;;3.50;;
22829;SDS011;11581;51.250;6.778;2022-12-24T07:41:30;19.20;;;4.80;;
22829;SDS011;11581;51.250;6.778;2022-12-24T07:43:59;18.25;;;3.90;;
22829;SDS011;11581;51.250;6.778;2022-12-24T07:46:27;16.27;;;3.78;;
22829;SDS011;11581;51.250;6.778;2022-12-24T07:48:55;19.65;;;3.72;;
22829;SDS011;11581;51.250;6.778;2022-12-24T07:51:22;17.02;;;4.05;;
22829;SDS011;11581;51.250;6.778;2022-12-24T07:53:49;15.82;;;3.60;;
22829;SDS011;11581;51.250;6.778;2022-12-24T07:56:16;19.88;;;4.15;;
22829;SDS011;11581;51.250;6.778;2022-12-24T07:58:43;17.50;;;3.95;;
22829;SDS011;11581;51.250;6.778;2022-12-24T08:01:11;19.45;;;4.57;;
22829;SDS011;11581;51.250;6.778;2022-12-24T08:03:40;15.35;;;3.92;;
22829;SDS011;11581;51.250;6.778;2022-12-24T08:06:08;18.42;;;4.15;;
22829;SDS011;11581;51.250;6.778;2022-12-24T08:08:38;23.55;;;4.97;;
22829;SDS011;11581;51.250;6.778;2022-12-24T08:11:06;23.17;;;4.90;;
22829;SDS011;11581;51.250;6.778;2022-12-24T08:13:34;19.00;;;4.18;;
22829;SDS011;11581;51.250;6.778;2022-12-24T08:16:01;22.95;;;4.07;;
22829;SDS011;11581;51.250;6.778;2022-12-24T08:18:29;17.85;;;4.32;;
22829;SDS011;11581;51.250;6.778;2022-12-24T08:20:58;16.40;;;3.25;;
22829;SDS011;11581;51.250;6.778;2022-12-24T08:23:26;17.75;;;4.07;;
22829;SDS011;11581;51.250;6.778;2022-12-24T08:25:53;21.58;;;3.97;;
22829;SDS011;11581;51.250;6.778;2022-12-24T08:28:20;24.92;;;5.18;;
22829;SDS011;11581;51.250;6.778;2022-12-24T08:30:47;18.65;;;3.75;;
22829;SDS011;11581;51.250;6.778;2022-12-24T08:33:16;17.55;;;4.10;;
22829;SDS011;11581;51.250;6.778;2022-12-24T08:35:55;22.27;;;4.45;;
22829;SDS011;11581;51.250;6.778;2022-12-24T08:38:25;21.67;;;4.18;;
22829;SDS011;11581;51.250;6.778;2022-12-24T08:41:10;17.27;;;4.45;;
22829;SDS011;11581;51.250;6.778;2022-12-24T08:43:39;22.63;;;4.10;;
22829;SDS011;11581;51.250;6.778;2022-12-24T08:46:20;17.83;;;4.03;;
22829;SDS011;11581;51.250;6.778;2022-12-24T08:48:58;22.17;;;4.47;;
22829;SDS011;11581;51.250;6.778;2022-12-24T08:51:31;19.23;;;4.72;;
22829;SDS011;11581;51.250;6.778;2022-12-24T08:53:57;20.15;;;4.10;;
22829;SDS011;11581;51.250;6.778;2022-12-24T08:56:30;15.73;;;3.30;;
22829;SDS011;11581;51.250;6.778;2022-12-24T08:58:58;19.60;;;4.22;;
22829;SDS011;11581;51.250;6.778;2022-12-24T09:01:26;18.48;;;4.40;;
22829;SDS011;11581;51.250;6.778;2022-12-24T09:03:53;22.85;;;4.10;;
22829;SDS011;11581;51.250;6.778;2022-12-24T09:06:20;18.77;;;4.50;;
22829;SDS011;11581;51.250;6.778;2022-12-24T09:08:49;17.70;;;4.07;;
22829;SDS011;11581;51.250;6.778;2022-12-24T09:11:16;18.10;;;4.50;;
22829;SDS011;11581;51.250;6.778;2022-12-24T09:13:46;19.05;;;4.45;;
22829;SDS011;11581;51.250;6.778;2022-12-24T09:16:13;15.60;;;3.58;;
22829;SDS011;11581;51.250;6.778;2022-12-24T09:18:43;21.73;;;4.68;;
22829;SDS011;11581;51.250;6.778;2022-12-24T09:21:10;16.10;;;4.63;;
22829;SDS011;11581;51.250;6.778;2022-12-24T09:23:41;19.20;;;3.92;;
22829;SDS011;11581;51.250;6.778;2022-12-24T09:26:11;17.83;;;4.07;;
22829;SDS011;11581;51.250;6.778;2022-12-24T09:28:40;14.88;;;3.38;;
22829;SDS011;11581;51.250;6.778;2022-12-24T09:31:08;15.57;;;4.38;;
22829;SDS011;11581;51.250;6.778;2022-12-24T09:33:36;21.65;;;4.85;;
22829;SDS011;11581;51.250;6.778;2022-12-24T09:36:05;15.70;;;4.25;;
22829;SDS011;11581;51.250;6.778;2022-12-24T09:38:33;17.73;;;4.00;;
22829;SDS011;11581;51.250;6.778;2022-12-24T09:41:11;18.60;;;4.05;;
22829;SDS011;11581;51.250;6.778;2022-12-24T09:43:43;12.02;;;3.35;;
22829;SDS011;11581;51.250;6.778;2022-12-24T09:46:16;20.73;;;3.67;;
22829;SDS011;11581;51.250;6.778;2022-12-24T09:48:49;19.80;;;4.03;;
22829;SDS011;11581;51.250;6.778;2022-12-24T09:51:23;22.40;;;4.43;;
22829;SDS011;11581;51.250;6.778;2022-12-24T09:53:56;23.10;;;4.55;;
22829;SDS011;11581;51.250;6.778;2022-12-24T09:56:30;15.52;;;3.45;;
22829;SDS011;11581;51.250;6.778;2022-12-24T09:59:04;16.13;;;4.07;;
22829;SDS011;11581;51.250;6.778;2022-12-24T10:01:32;15.30;;;4.05;;
22829;SDS011;11581;51.250;6.778;2022-12-24T10:04:01;21.38;;;4.07;;
22829;SDS011;11581;51.250;6.778;2022-12-24T10:06:30;22.52;;;3.97;;
22829;SDS011;11581;51.250;6.778;2022-12-24T10:09:06;15.48;;;3.63;;
22829;SDS011;11581;51.250;6.778;2022-12-24T10:11:45;21.73;;;4.32;;
22829;SDS011;11581;51.250;6.778;2022-12-24T10:14:24;15.45;;;3.42;;
22829;SDS011;11581;51.250;6.778;2022-12-24T10:17:02;12.20;;;3.90;;
22829;SDS011;11581;51.250;6.778;2022-12-24T10:19:53;18.38;;;4.03;;
22829;SDS011;11581;51.250;6.778;2022-12-24T10:22:33;16.50;;;4.30;;
22829;SDS011;11581;51.250;6.778;2022-12-24T10:25:14;16.83;;;3.45;;
22829;SDS011;11581;51.250;6.778;2022-12-24T10:27:48;17.27;;;3.60;;
22829;SDS011;11581;51.250;6.778;2022-12-24T10:30:21;17.95;;;3.92;;
22829;SDS011;11581;51.250;6.778;2022-12-24T10:32:50;21.23;;;4.28;;
22829;SDS011;11581;51.250;6.778;2022-12-24T10:35:19;14.32;;;3.40;;
22829;SDS011;11581;51.250;6.778;2022-12-24T10:37:49;14.57;;;4.22;;
22829;SDS011;11581;51.250;6.778;2022-12-24T10:40:21;19.55;;;4.70;;
22829;SDS011;11581;51.250;6.778;2022-12-24T10:42:54;27.45;;;4.20;;
22829;SDS011;11581;51.250;6.778;2022-12-24T10:45:24;19.50;;;4.28;;
22829;SDS011;11581;51.250;6.778;2022-12-24T10:48:05;26.17;;;5.20;;
22829;SDS011;11581;51.250;6.778;2022-12-24T10:50:41;20.50;;;4.65;;
22829;SDS011;11581;51.250;6.778;2022-12-24T10:53:18;18.27;;;4.07;;
22829;SDS011;11581;51.250;6.778;2022-12-24T10:55:50;16.38;;;4.40;;
22829;SDS011;11581;51.250;6.778;2022-12-24T10:58:30;22.45;;;4.55;;
22829;SDS011;11581;51.250;6.778;2022-12-24T11:01:00;22.05;;;4.80;;
22829;SDS011;11581;51.250;6.778;2022-12-24T11:03:29;22.35;;;4.90;;
22829;SDS011;11581;51.250;6.778;2022-12-24T11:06:02;16.05;;;4.55;;
22829;SDS011;11581;51.250;6.778;2022-12-24T11:08:31;21.70;;;4.78;;
22829;SDS011;11581;51.250;6.778;2022-12-24T11:11:02;16.65;;;3.50;;
22829;SDS011;11581;51.250;6.778;2022-12-24T11:13:37;25.88;;;5.20;;
22829;SDS011;11581;51.250;6.778;2022-12-24T11:16:09;17.85;;;4.57;;
22829;SDS011;11581;51.250;6.778;2022-12-24T11:18:48;16.33;;;4.63;;
22829;SDS011;11581;51.250;6.778;2022-12-24T11:21:18;17.75;;;3.88;;
22829;SDS011;11581;51.250;6.778;2022-12-24T11:23:50;16.73;;;3.95;;
22829;SDS011;11581;51.250;6.778;2022-12-24T11:26:20;20.25;;;4.47;;
22829;SDS011;11581;51.250;6.778;2022-12-24T11:31:47;15.75;;;2.83;;
22829;SDS011;11581;51.250;6.778;2022-12-24T11:34:26;19.98;;;4.03;;
22829;SDS011;11581;51.250;6.778;2022-12-24T11:37:29;19.42;;;4.28;;
22829;SDS011;11581;51.250;6.778;2022-12-24T11:40:02;20.73;;;3.92;;
22829;SDS011;11581;51.250;6.778;2022-12-24T11:42:46;16.13;;;4.03;;
22829;SDS011;11581;51.250;6.778;2022-12-24T11:48:31;15.15;;;3.63;;
22829;SDS011;11581;51.250;6.778;2022-12-24T11:51:20;21.45;;;4.63;;
22829;SDS011;11581;51.250;6.778;2022-12-24T11:53:56;17.73;;;4.32;;
22829;SDS011;11581;51.250;6.778;2022-12-24T11:57:17;18.33;;;4.07;;
22829;SDS011;11581;51.250;6.778;2022-12-24T12:00:10;17.23;;;4.13;;
22829;SDS011;11581;51.250;6.778;2022-12-24T12:02:43;20.30;;;4.00;;
22829;SDS011;11581;51.250;6.778;2022-12-24T12:05:21;17.42;;;4.35;;
22829;SDS011;11581;51.250;6.778;2022-12-24T12:08:09;18.30;;;4.53;;
22829;SDS011;11581;51.250;6.778;2022-12-24T12:10:42;17.60;;;3.42;;
22829;SDS011;11581;51.250;6.778;2022-12-24T12:13:13;16.65;;;3.70;;
22829;SDS011;11581;51.250;6.778;2022-12-24T12:15:43;14.57;;;3.17;;
22829;SDS011;11581;51.250;6.778;2022-12-24T12:18:15;22.42;;;4.20;;
22829;SDS011;11581;51.250;6.778;2022-12-24T12:20:50;17.60;;;4.38;;
22829;SDS011;11581;51.250;6.778;2022-12-24T12:23:22;17.52;;;4.30;;
22829;SDS011;11581;51.250;6.778;2022-12-24T12:25:54;17.00;;;4.18;;
22829;SDS011;11581;51.250;6.778;2022-12-24T12:28:25;14.98;;;3.65;;
22829;SDS011;11581;51.250;6.778;2022-12-24T12:30:59;16.98;;;3.83;;
22829;SDS011;11581;51.250;6.778;2022-12-24T12:33:31;14.20;;;3.83;;
22829;SDS011;11581;51.250;6.778;2022-12-24T12:36:06;19.77;;;3.95;;
22829;SDS011;11581;51.250;6.778;2022-12-24T12:38:36;14.38;;;3.53;;
22829;SDS011;11581;51.250;6.778;2022-12-24T12:44:16;20.75;;;3.92;;
22829;SDS011;11581;51.250;6.778;2022-12-24T12:47:24;20.40;;;4.13;;
22829;SDS011;11581;51.250;6.778;2022-12-24T12:50:04;16.85;;;3.88;;
22829;SDS011;11581;51.250;6.778;2022-12-24T12:52:47;19.60;;;3.83;;
22829;SDS011;11581;51.250;6.778;2022-12-24T12:55:26;14.35;;;3.30;;
22829;SDS011;11581;51.250;6.778;2022-12-24T12:58:02;14.98;;;3.60;;
22829;SDS011;11581;51.250;6.778;2022-12-24T13:00:37;16.90;;;3.45;;
22829;SDS011;11581;51.250;6.778;2022-12-24T13:09:31;13.50;;;3.22;;
22829;SDS011;11581;51.250;6.778;2022-12-24T13:12:21;18.40;;;4.20;;
22829;SDS011;11581;51.250;6.778;2022-12-24T13:15:15;14.10;;;3.42;;
22829;SDS011;11581;51.250;6.778;2022-12-24T13:18:08;14.02;;;3.05;;
22829;SDS011;11581;51.250;6.778;2022-12-24T13:20:55;15.73;;;3.53;;
22829;SDS011;11581;51.250;6.778;2022-12-24T13:23:26;18.13;;;3.42;;
22829;SDS011;11581;51.250;6.778;2022-12-24T13:25:55;16.85;;;3.55;;
22829;SDS011;11581;51.250;6.778;2022-12-24T13:31:22;13.02;;;3.17;;
22829;SDS011;11581;51.250;6.778;2022-12-24T13:33:53;13.60;;;3.30;;
22829;SDS011;11581;51.250;6.778;2022-12-24T13:36:21;16.42;;;4.13;;
22829;SDS011;11581;51.250;6.778;2022-12-24T13:39:21;13.35;;;3.45;;
22829;SDS011;11581;51.250;6.778;2022-12-24T13:41:49;11.52;;;2.80;;
22829;SDS011;11581;51.250;6.778;2022-12-24T13:44:26;15.13;;;3.42;;
22829;SDS011;11581;51.250;6.778;2022-12-24T13:47:15;15.20;;;3.35;;
22829;SDS011;11581;51.250;6.778;2022-12-24T13:49:47;8.48;;;2.60;;
22829;SDS011;11581;51.250;6.778;2022-12-24T13:52:18;11.18;;;2.50;;
22829;SDS011;11581;51.250;6.778;2022-12-24T13:55:01;13.65;;;3.53;;
22829;SDS011;11581;51.250;6.778;2022-12-24T13:57:53;12.10;;;2.35;;
22829;SDS011;11581;51.250;6.778;2022-12-24T14:00:27;14.45;;;2.92;;
22829;SDS011;11581;51.250;6.778;2022-12-24T14:02:59;12.25;;;2.45;;
22829;SDS011;11581;51.250;6.778;2022-12-24T14:05:30;15.98;;;2.92;;
22829;SDS011;11581;51.250;6.778;2022-12-24T14:08:00;11.23;;;2.20;;
22829;SDS011;11581;51.250;6.778;2022-12-24T14:10:33;10.88;;;2.38;;
22829;SDS011;11581;51.250;6.778;2022-12-24T14:13:04;9.40;;;3.05;;
22829;SDS011;11581;51.250;6.778;2022-12-24T14:18:37;12.13;;;2.70;;
22829;SDS011;11581;51.250;6.778;2022-12-24T14:21:11;11.82;;;2.80;;
22829;SDS011;11581;51.250;6.778;2022-12-24T14:23:43;9.60;;;2.60;;
22829;SDS011;11581;51.250;6.778;2022-12-24T14:26:23;15.50;;;3.25;;
22829;SDS011;11581;51.250;6.778;2022-12-24T14:28:54;12.63;;;2.88;;
22829;SDS011;11581;51.250;6.778;2022-12-24T14:31:24;11.15;;;2.85;;
22829;SDS011;11581;51.250;6.778;2022-12-24T14:33:51;12.02;;;2.55;;
22829;SDS011;11581;51.250;6.778;2022-12-24T14:36:31;12.93;;;3.30;;
22829;SDS011;11581;51.250;6.778;2022-12-24T14:38:58;10.25;;;2.63;;
22829;SDS011;11581;51.250;6.778;2022-12-24T14:41:29;15.43;;;3.85;;
22829;SDS011;11581;51.250;6.778;2022-12-24T14:44:07;12.95;;;3.53;;
22829;SDS011;11581;51.250;6.778;2022-12-24T14:46:42;15.48;;;2.83;;
22829;SDS011;11581;51.250;6.778;2022-12-24T14:49:24;12.23;;;2.90;;
22829;SDS011;11581;51.250;6.778;2022-12-24T14:52:04;21.23;;;3.72;;
22829;SDS011;11581;51.250;6.778;2022-12-24T14:54:40;18.80;;;3.55;;
22829;SDS011;11581;51.250;6.778;2022-12-24T14:57:17;18.92;;;3.47;;
22829;SDS011;11581;51.250;6.778;2022-12-24T14:59:50;13.50;;;2.80;;
22829;SDS011;11581;51.250;6.778;2022-12-24T15:02:22;15.57;;;3.33;;
22829;SDS011;11581;51.250;6.778;2022-12-24T15:05:05;11.98;;;3.53;;
22829;SDS011;11581;51.250;6.778;2022-12-24T15:07:38;16.90;;;3.03;;
22829;SDS011;11581;51.250;6.778;2022-12-24T15:10:25;15.52;;;3.78;;
22829;SDS011;11581;51.250;6.778;2022-12-24T15:13:00;16.52;;;3.53;;
22829;SDS011;11581;51.250;6.778;2022-12-24T15:15:33;15.02;;;3.03;;
22829;SDS011;11581;51.250;6.778;2022-12-24T15:18:01;18.60;;;3.55;;
22829;SDS011;11581;51.250;6.778;2022-12-24T15:20:29;18.52;;;3.70;;
22829;SDS011;11581;51.250;6.778;2022-12-24T15:22:58;15.55;;;3.85;;
22829;SDS011;11581;51.250;6.778;2022-12-24T15:25:25;22.10;;;4.18;;
22829;SDS011;11581;51.250;6.778;2022-12-24T15:27:54;19.83;;;3.97;;
22829;SDS011;11581;51.250;6.778;2022-12-24T15:30:24;14.18;;;3.17;;
22829;SDS011;11581;51.250;6.778;2022-12-24T15:32:57;16.77;;;4.13;;
22829;SDS011;11581;51.250;6.778;2022-12-24T15:35:28;14.57;;;2.78;;
22829;SDS011;11581;51.250;6.778;2022-12-24T15:37:56;16.58;;;3.10;;
22829;SDS011;11581;51.250;6.778;2022-12-24T15:40:25;15.73;;;3.47;;
22829;SDS011;11581;51.250;6.778;2022-12-24T15:42:53;15.40;;;3.42;;
22829;SDS011;11581;51.250;6.778;2022-12-24T15:45:20;15.60;;;3.97;;
22829;SDS011;11581;51.250;6.778;2022-12-24T15:47:52;20.23;;;4.15;;